createdAt,value
2018-04-23T00:02:22.427Z,15.01
2018-04-23T00:04:49.929Z,14.86
2018-04-23T00:07:17.465Z,14.82
2018-04-23T00:09:45.127Z,14.86
2018-04-23T00:12:12.775Z,14.86
2018-04-23T00:14:40.394Z,14.86
2018-04-23T00:17:08.389Z,14.84
2018-04-23T00:19:36.024Z,14.79
2018-04-23T00:22:03.652Z,14.77
2018-04-23T00:24:32.139Z,14.60
2018-04-23T00:26:59.764Z,14.54
2018-04-23T00:29:28.945Z,14.50
2018-04-23T00:31:56.563Z,14.47
2018-04-23T00:34:24.092Z,14.45
2018-04-23T00:36:52.100Z,14.39
2018-04-23T00:39:19.645Z,14.41
2018-04-23T00:41:47.169Z,14.42
2018-04-23T00:44:14.744Z,14.46
2018-04-23T00:46:42.465Z,14.46
2018-04-23T00:49:10.004Z,14.41
2018-04-23T00:51:37.553Z,14.31
2018-04-23T00:54:05.065Z,14.27
2018-04-23T00:56:32.637Z,14.25
2018-04-23T00:59:00.212Z,14.18
2018-04-23T01:01:27.750Z,14.15
2018-04-23T01:03:55.316Z,14.10
2018-04-23T01:06:22.845Z,14.11
2018-04-23T01:08:50.458Z,14.17
2018-04-23T01:11:18.053Z,14.21
2018-04-23T01:13:45.760Z,14.22
2018-04-23T01:16:13.310Z,14.23
2018-04-23T01:18:40.952Z,14.18
2018-04-23T01:21:08.538Z,14.11
2018-04-23T01:23:36.066Z,14.07
2018-04-23T01:26:03.640Z,14.04
2018-04-23T01:28:31.163Z,13.96
2018-04-23T01:30:58.711Z,13.89
2018-04-23T01:33:26.227Z,13.84
2018-04-23T01:35:53.748Z,13.86
2018-04-23T01:38:21.652Z,13.77
2018-04-23T01:40:49.170Z,13.73
2018-04-23T01:43:17.955Z,13.73
2018-04-23T01:45:45.517Z,13.75
2018-04-23T01:48:18.128Z,13.73
2018-04-23T01:50:50.320Z,13.69
2018-04-23T01:53:23.064Z,13.70
2018-04-23T01:55:55.320Z,13.72
2018-04-23T01:58:29.972Z,13.66
2018-04-23T02:01:02.394Z,13.60
2018-04-23T02:03:35.149Z,13.51
2018-04-23T02:06:07.607Z,13.51
2018-04-23T02:08:39.912Z,13.51
2018-04-23T02:11:11.612Z,13.49
2018-04-23T02:13:44.175Z,13.50
2018-04-23T02:16:17.262Z,13.53
2018-04-23T02:18:49.404Z,13.48
2018-04-23T02:21:22.293Z,13.48
2018-04-23T02:23:55.775Z,13.50
2018-04-23T02:26:29.009Z,13.52
2018-04-23T02:29:03.855Z,13.55
2018-04-23T02:31:38.238Z,13.55
2018-04-23T02:34:11.032Z,13.50
2018-04-23T02:36:43.373Z,13.47
2018-04-23T02:39:16.422Z,13.46
2018-04-23T02:41:48.642Z,13.44
2018-04-23T02:44:21.109Z,13.42
2018-04-23T02:46:53.916Z,13.40
2018-04-23T02:49:28.725Z,13.38
2018-04-23T02:52:04.382Z,13.44
2018-04-23T02:54:39.699Z,13.51
2018-04-23T02:57:11.967Z,13.54
2018-04-23T02:59:44.639Z,13.48
2018-04-23T03:02:17.425Z,13.41
2018-04-23T03:04:47.028Z,13.38
2018-04-23T03:07:14.886Z,13.38
2018-04-23T03:09:42.889Z,13.42
2018-04-23T03:12:10.797Z,13.48
2018-04-23T03:14:38.355Z,13.47
2018-04-23T03:17:06.067Z,13.50
2018-04-23T03:19:33.582Z,13.44
2018-04-23T03:22:01.149Z,13.43
2018-04-23T03:24:28.681Z,13.36
2018-04-23T03:26:56.190Z,13.37
2018-04-23T03:29:24.008Z,13.38
2018-04-23T03:31:52.328Z,13.43
2018-04-23T03:34:20.179Z,13.47
2018-04-23T03:36:47.717Z,13.48
2018-04-23T03:39:16.431Z,13.44
2018-04-23T03:41:44.032Z,13.42
2018-04-23T03:44:11.673Z,13.43
2018-04-23T03:46:39.302Z,13.45
2018-04-23T03:49:06.953Z,13.46
2018-04-23T03:51:35.283Z,13.46
2018-04-23T03:56:34.509Z,13.30
2018-04-23T03:59:02.031Z,13.35
2018-04-23T04:01:29.585Z,13.36
2018-04-23T04:03:57.109Z,13.41
2018-04-23T04:06:24.744Z,13.40
2018-04-23T04:08:52.295Z,13.34
2018-04-23T04:11:19.839Z,13.27
2018-04-23T04:20:42.170Z,13.14
2018-04-23T04:23:09.740Z,13.20
2018-04-23T04:25:37.338Z,13.27
2018-04-23T04:28:04.940Z,13.34
2018-04-23T04:30:32.557Z,13.36
2018-04-23T04:33:00.121Z,13.39
2018-04-23T04:35:27.718Z,13.47
2018-04-23T04:37:55.218Z,13.57
2018-04-23T04:40:22.744Z,13.64
2018-04-23T04:42:50.282Z,13.69
2018-04-23T04:45:17.782Z,13.76
2018-04-23T04:47:45.334Z,13.82
2018-04-23T04:50:13.724Z,13.89
2018-04-23T04:52:42.167Z,13.94
2018-04-23T04:55:11.505Z,13.93
2018-04-23T04:57:39.058Z,14.00
2018-04-23T05:00:06.655Z,14.03
2018-04-23T05:02:34.385Z,14.11
2018-04-23T05:05:02.045Z,14.19
2018-04-23T05:07:35.125Z,14.25
2018-04-23T05:10:02.776Z,14.38
2018-04-23T05:12:30.476Z,14.45
2018-04-23T05:14:58.152Z,14.52
2018-04-23T05:17:26.049Z,14.59
2018-04-23T05:19:53.716Z,14.58
2018-04-23T05:22:21.324Z,14.60
2018-04-23T05:24:48.971Z,14.61
2018-04-23T05:27:16.579Z,14.64
2018-04-23T05:29:44.305Z,14.67
2018-04-23T05:32:11.942Z,14.72
2018-04-23T05:34:39.508Z,14.78
2018-04-23T05:37:07.378Z,14.86
2018-04-23T05:39:36.085Z,14.95
2018-04-23T05:42:03.898Z,15.00
2018-04-23T05:44:31.594Z,15.07
2018-04-23T05:46:59.182Z,15.15
2018-04-23T05:49:26.918Z,15.23
2018-04-23T05:51:54.602Z,15.30
2018-04-23T05:54:22.261Z,15.36
2018-04-23T05:56:49.931Z,15.44
2018-04-23T05:59:17.633Z,15.54
2018-04-23T06:01:45.235Z,15.62
2018-04-23T06:06:39.820Z,15.79
2018-04-23T06:09:07.482Z,15.89
2018-04-23T06:11:35.023Z,16.00
2018-04-23T06:14:02.662Z,16.13
2018-04-23T06:16:30.377Z,16.27
2018-04-23T06:18:58.825Z,16.41
2018-04-23T06:21:26.382Z,16.54
2018-04-23T06:23:53.953Z,16.75
2018-04-23T06:26:21.485Z,17.16
2018-04-23T06:28:49.044Z,17.51
2018-04-23T06:31:16.584Z,17.93
2018-04-23T06:33:44.165Z,18.09
2018-04-23T06:36:11.678Z,18.45
2018-04-23T06:38:39.194Z,18.78
2018-04-23T06:41:06.751Z,19.06
2018-04-23T06:43:34.265Z,19.35
2018-04-23T06:46:01.794Z,19.51
2018-04-23T06:48:29.305Z,19.56
2018-04-23T06:50:56.954Z,19.86
2018-04-23T06:53:26.565Z,20.02
2018-04-23T06:55:54.144Z,20.15
2018-04-23T06:58:21.805Z,20.34
2018-04-23T07:00:49.568Z,20.39
2018-04-23T07:03:17.200Z,20.63
2018-04-23T07:05:44.870Z,20.73
2018-04-23T07:08:12.574Z,20.85
2018-04-23T07:10:40.519Z,20.96
2018-04-23T07:13:08.158Z,21.04
2018-04-23T07:15:35.741Z,21.14
2018-04-23T07:18:03.352Z,21.26
2018-04-23T07:20:31.045Z,21.32
2018-04-23T07:22:58.636Z,21.45
2018-04-23T07:25:26.166Z,21.55
2018-04-23T07:27:53.745Z,21.63
2018-04-23T07:30:21.420Z,21.78
2018-04-23T07:32:49.021Z,21.84
2018-04-23T07:35:17.307Z,21.81
2018-04-23T07:37:44.847Z,21.84
2018-04-23T07:40:12.393Z,21.99
2018-04-23T07:42:40.043Z,22.13
2018-04-23T07:45:07.643Z,22.14
2018-04-23T07:47:35.238Z,22.17
2018-04-23T07:50:02.871Z,22.21
2018-04-23T07:52:30.457Z,22.31
2018-04-23T07:54:58.123Z,22.43
2018-04-23T07:57:26.013Z,22.41
2018-04-23T07:59:53.734Z,22.51
2018-04-23T08:02:22.177Z,22.62
2018-04-23T08:04:49.895Z,22.70
2018-04-23T08:07:17.537Z,22.79
2018-04-23T08:09:45.229Z,22.87
2018-04-23T08:14:46.556Z,22.96
2018-04-23T08:17:14.072Z,23.01
2018-04-23T08:19:41.702Z,22.99
2018-04-23T08:22:09.352Z,22.92
2018-04-23T08:24:37.013Z,22.79
2018-04-23T08:27:04.640Z,22.69
2018-04-23T08:29:32.236Z,22.67
2018-04-23T08:31:59.925Z,22.54
2018-04-23T08:34:27.648Z,22.52
2018-04-23T08:36:55.331Z,22.46
2018-04-23T08:39:23.596Z,22.58
2018-04-23T08:41:51.353Z,22.45
2018-04-23T08:44:18.928Z,22.64
2018-04-23T08:46:46.508Z,22.71
2018-04-23T08:49:14.174Z,22.75
2018-04-23T08:51:41.827Z,22.75
2018-04-23T08:54:09.435Z,22.76
2018-04-23T08:56:37.028Z,22.81
2018-04-23T08:59:04.672Z,22.85
2018-04-23T09:01:32.246Z,22.99
2018-04-23T09:03:59.858Z,23.12
2018-04-23T09:06:27.642Z,23.22
2018-04-23T09:08:55.318Z,23.41
2018-04-23T09:11:22.967Z,23.51
2018-04-23T09:13:50.582Z,23.70
2018-04-23T09:16:18.212Z,23.92
2018-04-23T09:18:45.805Z,24.14
2018-04-23T09:21:14.901Z,24.36
2018-04-23T09:23:42.561Z,24.56
2018-04-23T09:26:10.138Z,24.69
2018-04-23T09:28:37.728Z,24.80
2018-04-23T09:31:05.411Z,24.83
2018-04-23T09:33:33.096Z,24.80
2018-04-23T09:36:00.740Z,24.90
2018-04-23T09:38:28.481Z,24.80
2018-04-23T09:40:56.020Z,24.70
2018-04-23T09:43:23.547Z,24.73
2018-04-23T09:45:51.060Z,24.71
2018-04-23T09:48:18.650Z,24.62
2018-04-23T09:50:46.195Z,24.67
2018-04-23T09:53:13.705Z,24.77
2018-04-23T09:55:41.242Z,24.83
2018-04-23T09:58:08.769Z,24.93
2018-04-23T10:00:36.347Z,25.03
2018-04-23T10:03:11.293Z,25.08
2018-04-23T10:05:41.831Z,25.25
2018-04-23T10:08:09.365Z,25.42
2018-04-23T10:10:37.026Z,25.39
2018-04-23T10:13:04.637Z,25.25
2018-04-23T10:15:32.347Z,25.26
2018-04-23T10:17:59.967Z,25.42
2018-04-23T10:20:27.555Z,25.60
2018-04-23T10:25:27.810Z,25.84
2018-04-23T10:27:55.414Z,26.03
2018-04-23T10:30:22.956Z,26.17
2018-04-23T10:32:50.523Z,26.17
2018-04-23T10:35:18.260Z,26.14
2018-04-23T10:37:45.924Z,26.14
2018-04-23T10:40:13.540Z,25.98
2018-04-23T10:42:41.322Z,26.07
2018-04-23T10:45:08.946Z,26.20
2018-04-23T10:47:36.626Z,26.05
2018-04-23T10:50:04.348Z,26.13
2018-04-23T10:52:32.964Z,26.22
2018-04-23T10:55:00.533Z,26.46
2018-04-23T10:57:28.164Z,26.37
2018-04-23T10:59:55.806Z,26.38
2018-04-23T11:02:23.409Z,26.53
2018-04-23T11:04:51.066Z,26.75
2018-04-23T11:07:18.680Z,26.45
2018-04-23T11:09:46.281Z,26.53
2018-04-23T11:12:13.893Z,26.57
2018-04-23T11:14:41.463Z,26.46
2018-04-23T11:17:09.170Z,26.46
2018-04-23T11:19:36.823Z,26.55
2018-04-23T11:22:04.449Z,26.76
2018-04-23T11:24:32.151Z,26.77
2018-04-23T11:26:59.739Z,26.50
2018-04-23T11:29:27.383Z,26.37
2018-04-23T11:31:55.015Z,26.38
2018-04-23T11:34:22.655Z,26.47
2018-04-23T11:36:50.157Z,26.60
2018-04-23T11:39:18.438Z,26.65
2018-04-23T11:41:46.015Z,26.74
2018-04-23T11:44:13.602Z,26.78
2018-04-23T11:46:41.505Z,26.79
2018-04-23T11:49:09.051Z,26.88
2018-04-23T11:51:36.621Z,26.81
2018-04-23T11:54:04.130Z,27.05
2018-04-23T11:56:31.643Z,27.15
2018-04-23T11:58:59.191Z,27.35
2018-04-23T12:01:26.915Z,27.43
2018-04-23T12:03:54.554Z,27.50
2018-04-23T12:06:22.099Z,27.66
2018-04-23T12:08:49.716Z,27.66
2018-04-23T12:13:50.962Z,27.37
2018-04-23T12:16:18.553Z,27.40
2018-04-23T12:18:46.142Z,27.43
2018-04-23T12:21:13.940Z,27.59
2018-04-23T12:23:41.590Z,27.68
2018-04-23T12:26:09.192Z,27.80
2018-04-23T12:28:36.775Z,27.52
2018-04-23T12:31:04.996Z,27.08
2018-04-23T12:33:32.589Z,26.92
2018-04-23T12:36:00.107Z,26.88
2018-04-23T12:38:27.817Z,27.03
2018-04-23T12:43:29.185Z,27.38
2018-04-23T12:45:56.772Z,27.59
2018-04-23T12:48:24.329Z,27.74
2018-04-23T12:50:51.927Z,27.65
2018-04-23T12:53:19.957Z,27.79
2018-04-23T12:55:47.692Z,27.95
2018-04-23T12:58:15.288Z,28.07
2018-04-23T13:00:43.037Z,28.27
2018-04-23T13:03:11.400Z,28.50
2018-04-23T13:05:54.901Z,28.68
2018-04-23T13:08:22.676Z,28.75
2018-04-23T13:10:50.319Z,28.54
2018-04-23T13:13:17.936Z,28.41
2018-04-23T13:15:45.676Z,28.17
2018-04-23T13:18:13.259Z,28.18
2018-04-23T13:20:40.897Z,28.32
2018-04-23T13:23:08.425Z,28.26
2018-04-23T13:25:36.480Z,28.28
2018-04-23T13:28:04.178Z,28.28
2018-04-23T13:30:31.780Z,28.34
2018-04-23T13:32:59.364Z,28.36
2018-04-23T13:35:26.989Z,28.54
2018-04-23T13:37:54.713Z,28.77
2018-04-23T13:40:22.292Z,28.65
2018-04-23T13:42:49.862Z,28.49
2018-04-23T13:45:19.241Z,28.48
2018-04-23T13:47:47.873Z,28.40
2018-04-23T13:50:16.615Z,28.41
2018-04-23T13:52:44.205Z,28.32
2018-04-23T13:55:12.044Z,28.21
2018-04-23T13:57:39.575Z,27.66
2018-04-23T14:00:07.105Z,27.61
2018-04-23T14:02:34.651Z,27.79
2018-04-23T14:05:02.580Z,28.08
2018-04-23T14:07:30.508Z,27.98
2018-04-23T14:09:58.119Z,27.84
2018-04-23T14:12:26.050Z,27.97
2018-04-23T14:14:53.651Z,28.18
2018-04-23T14:17:21.277Z,28.35
2018-04-23T14:19:48.977Z,28.49
2018-04-23T14:22:16.664Z,28.23
2018-04-23T14:24:44.200Z,28.21
2018-04-23T14:27:11.873Z,28.09
2018-04-23T14:29:39.561Z,27.99
2018-04-23T14:32:07.305Z,28.04
2018-04-23T14:34:34.887Z,28.10
2018-04-23T14:37:02.497Z,28.10
2018-04-23T14:39:30.151Z,28.07
2018-04-23T14:41:57.680Z,28.05
2018-04-23T14:44:25.222Z,28.05
2018-04-23T14:46:52.737Z,27.94
2018-04-23T14:49:20.959Z,28.10
2018-04-23T14:51:48.480Z,27.73
2018-04-23T14:54:16.070Z,27.65
2018-04-23T14:56:43.613Z,27.79
2018-04-23T14:59:11.204Z,27.79
2018-04-23T15:01:39.585Z,27.84
2018-04-23T15:04:07.232Z,27.92
2018-04-23T15:06:34.897Z,27.93
2018-04-23T15:09:02.636Z,27.97
2018-04-23T15:11:30.853Z,28.04
2018-04-23T15:13:58.993Z,28.13
2018-04-23T15:16:26.679Z,28.04
2018-04-23T15:18:54.479Z,28.05
2018-04-23T15:21:22.071Z,28.11
2018-04-23T15:23:49.949Z,28.08
2018-04-23T15:26:17.650Z,28.08
2018-04-23T15:28:45.330Z,28.13
2018-04-23T15:31:14.291Z,28.18
2018-04-23T15:33:41.956Z,28.19
2018-04-23T15:36:09.542Z,28.25
2018-04-23T15:38:37.120Z,27.92
2018-04-23T15:41:04.811Z,27.90
2018-04-23T15:43:32.567Z,27.91
2018-04-23T15:46:00.281Z,27.91
2018-04-23T15:48:27.989Z,27.94
2018-04-23T15:50:55.596Z,27.95
2018-04-23T15:53:23.591Z,27.81
2018-04-23T15:55:51.185Z,27.64
2018-04-23T15:58:18.837Z,27.62
2018-04-23T16:00:46.424Z,27.47
2018-04-23T16:03:14.165Z,27.38
2018-04-23T16:05:42.116Z,27.34
2018-04-23T16:08:11.320Z,27.30
2018-04-23T16:10:38.858Z,27.26
2018-04-23T16:13:06.434Z,27.23
2018-04-23T16:15:33.958Z,27.29
2018-04-23T16:18:01.818Z,27.17
2018-04-23T16:20:29.335Z,27.06
2018-04-23T16:22:56.912Z,27.03
2018-04-23T16:25:24.452Z,26.95
2018-04-23T16:27:51.993Z,26.77
2018-04-23T16:30:19.500Z,26.51
2018-04-23T16:32:47.048Z,26.27
2018-04-23T16:35:14.666Z,26.05
2018-04-23T16:37:42.405Z,25.82
2018-04-23T16:40:10.144Z,25.62
2018-04-23T16:42:37.659Z,25.46
2018-04-23T16:45:05.221Z,25.41
2018-04-23T16:47:32.803Z,25.22
2018-04-23T16:50:00.398Z,25.16
2018-04-23T16:52:28.006Z,25.15
2018-04-23T16:54:55.607Z,25.13
2018-04-23T16:57:23.214Z,24.92
2018-04-23T16:59:50.737Z,24.86
2018-04-23T17:02:18.265Z,24.89
2018-04-23T17:04:45.853Z,24.86
2018-04-23T17:07:13.573Z,24.72
2018-04-23T17:09:41.256Z,24.45
2018-04-23T17:12:08.816Z,24.44
2018-04-23T17:14:36.428Z,24.46
2018-04-23T17:17:03.959Z,24.46
2018-04-23T17:19:31.456Z,24.28
2018-04-23T17:21:59.290Z,24.01
2018-04-23T17:24:27.009Z,23.80
2018-04-23T17:26:54.570Z,23.59
2018-04-23T17:29:22.296Z,23.53
2018-04-23T17:31:49.941Z,23.35
2018-04-23T17:34:17.560Z,23.29
2018-04-23T17:36:45.177Z,23.20
2018-04-23T17:39:12.874Z,23.17
2018-04-23T17:41:40.641Z,23.07
2018-04-23T17:44:08.292Z,22.96
2018-04-23T17:46:35.997Z,22.84
2018-04-23T17:49:03.620Z,22.84
2018-04-23T17:51:31.247Z,22.84
2018-04-23T17:53:58.908Z,22.74
2018-04-23T17:56:26.564Z,22.72
2018-04-23T17:58:54.487Z,22.73
2018-04-23T18:01:22.102Z,22.70
2018-04-23T18:03:54.864Z,22.64
2018-04-23T18:06:22.518Z,22.54
2018-04-23T18:08:50.110Z,22.46
2018-04-23T18:11:18.373Z,22.28
2018-04-23T18:13:45.976Z,22.29
2018-04-23T18:16:13.562Z,22.10
2018-04-23T18:18:41.228Z,21.80
2018-04-23T18:21:08.905Z,21.66
2018-04-23T18:23:36.792Z,21.50
2018-04-23T18:26:04.556Z,21.47
2018-04-23T18:28:32.144Z,21.35
2018-04-23T18:30:59.766Z,21.28
2018-04-23T18:33:44.984Z,21.20
2018-04-23T18:36:12.635Z,21.23
2018-04-23T18:38:40.225Z,21.03
2018-04-23T18:41:07.716Z,20.94
2018-04-23T18:43:35.609Z,20.86
2018-04-23T18:46:03.310Z,20.82
2018-04-23T18:48:31.389Z,20.90
2018-04-23T18:50:59.074Z,20.93
2018-04-23T18:53:27.369Z,20.95
2018-04-23T18:55:55.283Z,20.92
2018-04-23T18:58:23.090Z,20.84
2018-04-23T19:00:50.791Z,20.83
2018-04-23T19:03:18.983Z,20.71
2018-04-23T19:05:46.803Z,20.67
2018-04-23T19:08:14.415Z,20.55
2018-04-23T19:10:42.074Z,20.55
2018-04-23T19:13:11.263Z,20.57
2018-04-23T19:15:39.072Z,20.55
2018-04-23T19:18:06.970Z,20.47
2018-04-23T19:20:34.613Z,20.42
2018-04-23T19:23:02.228Z,20.45
2018-04-23T19:25:30.251Z,20.50
2018-04-23T19:27:58.050Z,20.53
2018-04-23T19:32:59.768Z,20.48
2018-04-23T19:35:27.466Z,20.52
2018-04-23T19:37:55.063Z,20.47
2018-04-23T19:40:22.722Z,20.51
2018-04-23T19:42:50.586Z,20.57
2018-04-23T19:45:18.163Z,20.56
2018-04-23T19:47:45.794Z,20.56
2018-04-23T19:50:13.431Z,20.50
2018-04-23T19:52:40.994Z,20.47
2018-04-23T19:55:08.721Z,20.28
2018-04-23T19:57:36.278Z,20.17
2018-04-23T20:00:03.874Z,20.10
2018-04-23T20:02:31.564Z,20.08
2018-04-23T20:04:59.179Z,20.15
2018-04-23T20:07:27.714Z,20.19
2018-04-23T20:12:30.485Z,20.08
2018-04-23T20:14:58.214Z,20.04
2018-04-23T20:17:26.791Z,20.03
2018-04-23T20:19:54.456Z,20.00
2018-04-23T20:22:22.124Z,19.89
2018-04-23T20:24:49.780Z,19.75
2018-04-23T20:27:17.988Z,19.71
2018-04-23T20:29:45.674Z,19.61
2018-04-23T20:32:13.317Z,19.65
2018-04-23T20:34:41.037Z,19.67
2018-04-23T20:37:09.060Z,19.67
2018-04-23T20:39:36.849Z,19.57
2018-04-23T20:42:04.605Z,19.45
2018-04-23T20:44:32.304Z,19.36
2018-04-23T20:47:00.081Z,19.23
2018-04-23T20:49:27.829Z,19.19
2018-04-23T20:51:55.451Z,18.97
2018-04-23T20:54:23.088Z,18.92
2018-04-23T20:59:40.933Z,18.59
2018-04-23T21:02:08.557Z,18.59
2018-04-23T21:04:36.255Z,18.57
2018-04-23T21:07:03.952Z,18.47
2018-04-23T21:09:31.671Z,18.40
2018-04-23T21:11:59.336Z,18.30
2018-04-23T21:14:27.067Z,18.29
2018-04-23T21:16:54.888Z,18.20
2018-04-23T21:19:22.500Z,18.19
2018-04-23T21:21:50.025Z,18.24
2018-04-23T21:26:51.456Z,18.25
2018-04-23T21:29:19.136Z,18.20
2018-04-23T21:31:46.835Z,18.25
2018-04-23T21:34:14.361Z,18.21
2018-04-23T21:36:43.342Z,18.18
2018-04-23T21:39:12.283Z,18.26
2018-04-23T21:41:39.834Z,18.29
2018-04-23T21:44:07.366Z,18.30
2018-04-23T21:46:34.896Z,18.24
2018-04-23T21:49:02.438Z,18.19
2018-04-23T21:51:31.102Z,18.02
2018-04-23T21:53:58.681Z,17.89
2018-04-23T21:56:26.231Z,17.74
2018-04-23T21:58:53.878Z,17.66
2018-04-23T22:01:21.519Z,17.67
2018-04-23T22:03:50.158Z,17.58
2018-04-23T22:06:17.900Z,17.51
2018-04-23T22:08:45.487Z,17.46
2018-04-23T22:13:46.840Z,17.37
2018-04-23T22:16:14.468Z,17.35
2018-04-23T22:18:42.090Z,17.33
2018-04-23T22:21:11.981Z,17.29
2018-04-23T22:23:39.564Z,17.31
2018-04-23T22:26:07.130Z,17.23
2018-04-23T22:28:34.744Z,17.19
2018-04-23T22:31:02.350Z,17.07
2018-04-23T22:33:29.908Z,17.05
2018-04-23T22:35:57.476Z,17.01
2018-04-23T22:38:25.240Z,16.97
2018-04-23T22:40:54.191Z,16.96
2018-04-23T22:43:24.846Z,17.00
2018-04-23T22:46:14.041Z,16.99
2018-04-23T22:48:43.731Z,16.84
2018-04-23T22:51:15.436Z,16.76
2018-04-23T22:53:43.030Z,16.70
2018-04-23T22:56:13.151Z,16.70
2018-04-23T22:58:41.174Z,16.75
2018-04-23T23:01:08.763Z,16.76
2018-04-23T23:03:36.464Z,16.76
2018-04-23T23:06:03.985Z,16.74
2018-04-23T23:08:31.520Z,16.64
2018-04-23T23:10:59.046Z,16.63
2018-04-23T23:13:27.100Z,16.57
2018-04-23T23:15:54.686Z,16.52
2018-04-23T23:18:22.184Z,16.58
2018-04-23T23:20:49.673Z,16.51
2018-04-23T23:23:17.321Z,16.58
2018-04-23T23:25:44.812Z,16.49
2018-04-23T23:28:12.321Z,16.44
2018-04-23T23:30:39.857Z,16.51
2018-04-23T23:33:07.497Z,16.49
2018-04-23T23:35:35.063Z,16.38
2018-04-23T23:38:02.624Z,16.32
2018-04-23T23:40:30.175Z,16.36
2018-04-23T23:42:57.741Z,16.28
2018-04-23T23:45:25.336Z,16.23
2018-04-23T23:47:52.934Z,16.26
2018-04-23T23:50:20.468Z,16.21
2018-04-23T23:52:47.972Z,16.19
2018-04-23T23:55:15.907Z,16.17
2018-04-23T23:57:43.393Z,16.14
